Time;durP1;ratioP1;P1;durP2;ratioP2;P2;SDS_P1;SDS_P2;PMS_P1;PMS_P2;Temp;Humidity;BMP_temperature;BMP_pressure;BME280_temperature;BME280_humidity;BME280_pressure;Samples;Min_cycle;Max_cycle;Signal;HPM_P1;HPM_P2
2021/08/31 00:00:09;;;;;;;14.52;6.82;;;;;;;-146.90;100.00;60518.97;5051848;28;20370;-69
2021/08/31 00:02:35;;;;;;;16.25;6.68;;;;;;;-146.90;100.00;60518.97;5052194;28;20567;-69
2021/08/31 00:05:00;;;;;;;18.60;7.55;;;;;;;-146.90;100.00;60518.97;5052165;28;20123;-69
2021/08/31 00:07:25;;;;;;;17.30;7.25;;;;;;;-146.90;100.00;60518.97;5051845;28;20063;-69
2021/08/31 00:09:51;;;;;;;16.27;7.18;;;;;;;-146.90;100.00;60518.97;5051290;28;20024;-69
2021/08/31 00:12:16;;;;;;;15.60;6.68;;;;;;;-146.90;100.00;60518.97;5051825;28;20025;-69
2021/08/31 00:14:42;;;;;;;18.15;7.22;;;;;;;-146.90;100.00;60518.97;5051019;28;20063;-69
2021/08/31 00:17:07;;;;;;;15.20;7.10;;;;;;;-146.90;100.00;60518.97;5050601;28;20267;-69
2021/08/31 00:19:33;;;;;;;21.48;7.10;;;;;;;-146.90;100.00;60518.97;5050133;28;20428;-69
2021/08/31 00:21:59;;;;;;;15.45;6.90;;;;;;;-146.90;100.00;60518.97;5051714;28;20553;-69
2021/08/31 00:24:24;;;;;;;16.38;6.82;;;;;;;-146.90;100.00;60518.97;5032973;28;20027;-70
2021/08/31 00:26:49;;;;;;;12.35;6.47;;;;;;;-146.90;100.00;60518.97;5051515;28;20113;-69
2021/08/31 00:29:15;;;;;;;14.25;7.03;;;;;;;-146.90;100.00;60518.97;5051191;28;20029;-69
2021/08/31 00:31:40;;;;;;;14.85;7.30;;;;;;;-146.90;100.00;60518.97;5051499;28;20070;-69
2021/08/31 00:34:05;;;;;;;15.10;6.97;;;;;;;-146.90;100.00;60518.97;5050730;28;20029;-70
2021/08/31 00:36:31;;;;;;;18.95;7.20;;;;;;;-146.90;100.00;60518.97;5050606;28;20036;-70
2021/08/31 00:38:57;;;;;;;13.93;6.65;;;;;;;-146.90;100.00;60518.97;5051915;28;20458;-71
2021/08/31 00:41:23;;;;;;;18.85;6.80;;;;;;;-146.90;100.00;60518.97;5052024;28;20596;-70
2021/08/31 00:43:49;;;;;;;14.25;7.00;;;;;;;-146.90;100.00;60518.97;5051055;28;20025;-70
2021/08/31 00:46:18;;;;;;;16.50;6.97;;;;;;;-146.90;100.00;60518.97;5051182;28;20029;-70
2021/08/31 00:48:44;;;;;;;19.67;7.30;;;;;;;-146.90;100.00;60518.97;5050137;28;20119;-69
2021/08/31 00:51:10;;;;;;;16.05;6.82;;;;;;;-146.90;100.00;60518.97;5049522;28;20024;-69
2021/08/31 00:53:37;;;;;;;17.83;7.55;;;;;;;-146.90;100.00;60518.97;5032456;28;20512;-70
2021/08/31 00:56:03;;;;;;;17.33;7.47;;;;;;;-146.90;100.00;60518.97;5050861;28;20020;-69
2021/08/31 00:58:32;;;;;;;16.02;7.45;;;;;;;-146.90;100.00;60518.97;5049808;28;20039;-70
2021/08/31 01:00:58;;;;;;;13.88;7.18;;;;;;;-146.90;100.00;60518.97;5050871;28;20035;-69
2021/08/31 01:03:24;;;;;;;18.83;7.20;;;;;;;-146.90;100.00;60518.97;5049697;28;20070;-70
2021/08/31 01:05:49;;;;;;;17.90;7.55;;;;;;;-146.90;100.00;60518.97;5050802;28;20029;-69
2021/08/31 01:08:15;;;;;;;18.98;7.93;;;;;;;-146.90;100.00;60518.97;5050291;28;20025;-71
2021/08/31 01:10:40;;;;;;;17.80;6.90;;;;;;;-146.90;100.00;60518.97;5050018;28;20025;-70
2021/08/31 01:13:06;;;;;;;17.98;7.78;;;;;;;-146.90;100.00;60518.97;5049260;28;20033;-70
2021/08/31 01:15:31;;;;;;;14.80;7.55;;;;;;;-146.90;100.00;60518.97;5049305;28;20021;-69
2021/08/31 01:17:57;;;;;;;16.63;7.75;;;;;;;-146.90;100.00;60518.97;5050471;28;20029;-70
2021/08/31 01:20:23;;;;;;;16.77;7.80;;;;;;;-146.90;100.00;60518.97;5050365;28;20035;-70
2021/08/31 01:22:48;;;;;;;18.85;7.78;;;;;;;-146.90;100.00;60518.97;5050128;28;20517;-71
2021/08/31 01:25:13;;;;;;;26.05;8.32;;;;;;;-146.90;100.00;60518.97;5049514;28;20441;-68
2021/08/31 01:27:39;;;;;;;17.92;7.20;;;;;;;-146.90;100.00;60518.97;5050455;28;20051;-69
2021/08/31 01:30:05;;;;;;;15.38;7.28;;;;;;;-146.90;100.00;60518.97;5050302;28;20056;-69
2021/08/31 01:32:30;;;;;;;18.80;7.65;;;;;;;-146.90;100.00;60518.97;5048754;28;20055;-69
2021/08/31 01:34:56;;;;;;;19.50;7.38;;;;;;;-146.90;100.00;60518.97;5049837;28;20040;-69
2021/08/31 01:37:21;;;;;;;19.92;8.13;;;;;;;-146.90;100.00;60518.97;5049855;28;20021;-70
2021/08/31 01:39:46;;;;;;;17.67;7.80;;;;;;;-146.90;100.00;60518.97;5050209;28;20043;-69
2021/08/31 01:42:12;;;;;;;19.70;7.88;;;;;;;-146.90;100.00;60518.97;5049933;28;20024;-69
2021/08/31 01:44:37;;;;;;;15.63;7.50;;;;;;;-146.90;100.00;60518.97;5049805;28;20025;-69
2021/08/31 01:47:03;;;;;;;15.55;7.28;;;;;;;-146.90;100.00;60518.97;5048563;28;20016;-69
2021/08/31 01:49:28;;;;;;;18.35;7.40;;;;;;;-146.90;100.00;60518.97;5049714;28;20508;-69
2021/08/31 01:51:53;;;;;;;18.35;7.38;;;;;;;-146.90;100.00;60518.97;5049697;28;20436;-69
2021/08/31 01:54:19;;;;;;;17.17;7.32;;;;;;;-146.90;100.00;60518.97;5048375;28;20017;-69
2021/08/31 01:56:44;;;;;;;22.15;7.80;;;;;;;-146.90;100.00;60518.97;5049709;28;20036;-70
2021/08/31 01:59:09;;;;;;;13.90;6.90;;;;;;;-146.90;100.00;60518.97;5049744;28;20192;-70
2021/08/31 02:01:35;;;;;;;24.35;7.50;;;;;;;-146.90;100.00;60518.97;5048314;28;20355;-70
2021/08/31 02:04:00;;;;;;;17.98;7.30;;;;;;;-146.90;100.00;60518.97;5048298;28;20448;-70
2021/08/31 02:06:25;;;;;;;17.05;7.60;;;;;;;-146.90;100.00;60518.97;5049865;28;20087;-69
2021/08/31 02:08:51;;;;;;;22.75;7.45;;;;;;;-146.90;100.00;60518.97;5049309;28;20035;-70
2021/08/31 02:11:16;;;;;;;18.45;6.80;;;;;;;-146.90;100.00;60518.97;5048558;28;20043;-69
2021/08/31 02:13:41;;;;;;;20.95;7.80;;;;;;;-146.90;100.00;60518.97;5049598;28;20021;-69
2021/08/31 02:16:08;;;;;;;18.23;7.28;;;;;;;-146.90;100.00;60518.97;5050405;28;20036;-69
2021/08/31 02:18:38;;;;;;;17.98;6.78;;;;;;;-146.90;100.00;60518.97;5048452;28;20083;-70
2021/08/31 02:21:04;;;;;;;20.63;7.82;;;;;;;-146.90;100.00;60518.97;5049010;28;20059;-69
2021/08/31 02:23:29;;;;;;;17.38;7.00;;;;;;;-146.90;100.00;60518.97;5049726;28;20024;-70
2021/08/31 02:25:55;;;;;;;15.80;7.38;;;;;;;-146.90;100.00;60518.97;5050163;28;20021;-68
2021/08/31 02:28:20;;;;;;;15.52;7.18;;;;;;;-146.90;100.00;60518.97;5047936;28;20029;-68
2021/08/31 02:30:45;;;;;;;20.10;6.97;;;;;;;-146.90;100.00;60518.97;5049317;28;20031;-69
2021/08/31 02:33:11;;;;;;;15.15;6.40;;;;;;;-146.90;100.00;60518.97;5048779;28;20025;-70
2021/08/31 02:35:36;;;;;;;16.33;7.00;;;;;;;-146.90;100.00;60518.97;5049460;28;20048;-70
2021/08/31 02:38:01;;;;;;;15.63;6.63;;;;;;;-146.90;100.00;60518.97;5048907;28;20432;-70
2021/08/31 02:40:26;;;;;;;15.50;6.63;;;;;;;-146.90;100.00;60518.97;5049306;28;20680;-69
2021/08/31 02:42:52;;;;;;;16.98;7.00;;;;;;;-146.90;100.00;60518.97;5049361;28;20020;-69
2021/08/31 02:45:17;;;;;;;17.20;7.57;;;;;;;-146.90;100.00;60518.97;5047707;28;20074;-69
2021/08/31 02:47:43;;;;;;;16.48;7.03;;;;;;;-146.90;100.00;60518.97;5048056;28;20071;-68
2021/08/31 02:50:08;;;;;;;18.40;7.25;;;;;;;-146.90;100.00;60518.97;5047608;28;20501;-69
2021/08/31 02:52:33;;;;;;;16.85;6.88;;;;;;;-146.90;100.00;60518.97;5049355;28;20029;-69
2021/08/31 02:54:59;;;;;;;15.60;7.22;;;;;;;-146.90;100.00;60518.97;5047463;28;20017;-70
2021/08/31 02:57:24;;;;;;;16.25;6.63;;;;;;;-146.90;100.00;60518.97;5049120;28;20090;-70
2021/08/31 02:59:49;;;;;;;14.93;7.03;;;;;;;-146.90;100.00;60518.97;5047620;28;20029;-68
2021/08/31 03:02:15;;;;;;;13.32;6.32;;;;;;;-146.90;100.00;60518.97;5053086;28;20071;-69
2021/08/31 03:04:42;;;;;;;16.02;6.80;;;;;;;-146.90;100.00;60518.97;5052427;28;20025;-69
2021/08/31 03:07:13;;;;;;;14.07;7.05;;;;;;;-146.90;100.00;60518.97;5051811;28;20029;-68
2021/08/31 03:09:39;;;;;;;16.15;7.13;;;;;;;-146.90;100.00;60518.97;5051364;28;20028;-69
2021/08/31 03:12:05;;;;;;;15.32;7.47;;;;;;;-146.90;100.00;60518.97;5051753;28;20025;-70
2021/08/31 03:14:30;;;;;;;14.85;6.82;;;;;;;-146.90;100.00;60518.97;5052398;28;20052;-70
2021/08/31 03:16:56;;;;;;;19.50;6.85;;;;;;;-146.90;100.00;60518.97;5051529;28;20462;-69
2021/08/31 03:19:23;;;;;;;14.88;6.95;;;;;;;-146.90;100.00;60518.97;5052306;28;20027;-69
2021/08/31 03:21:50;;;;;;;18.92;7.53;;;;;;;-146.90;100.00;60518.97;5052656;28;20036;-69
2021/08/31 03:24:15;;;;;;;22.35;7.28;;;;;;;-146.90;100.00;60518.97;5051006;28;20092;-69
2021/08/31 03:26:41;;;;;;;24.50;7.85;;;;;;;-146.90;100.00;60518.97;5051763;28;20112;-69
2021/08/31 03:29:06;;;;;;;16.33;6.80;;;;;;;-146.90;100.00;60518.97;5053027;28;20029;-69
2021/08/31 03:31:32;;;;;;;14.07;6.88;;;;;;;-146.90;100.00;60518.97;5052393;28;20025;-70
2021/08/31 03:33:57;;;;;;;16.95;6.93;;;;;;;-146.90;100.00;60518.97;5052372;28;20385;-69
2021/08/31 03:36:22;;;;;;;13.93;6.82;;;;;;;-146.90;100.00;60518.97;5052286;28;20025;-69
2021/08/31 03:38:48;;;;;;;16.08;7.15;;;;;;;-146.90;100.00;60518.97;5052174;28;20049;-69
2021/08/31 03:41:13;;;;;;;14.35;6.82;;;;;;;-146.90;100.00;60518.97;5052193;28;20442;-69
2021/08/31 03:43:39;;;;;;;17.35;7.00;;;;;;;-146.90;100.00;60518.97;5052185;28;20021;-69
2021/08/31 03:46:04;;;;;;;14.63;6.82;;;;;;;-146.90;100.00;60518.97;5052309;28;20087;-69
2021/08/31 03:48:30;;;;;;;17.98;6.93;;;;;;;-146.90;100.00;60518.97;5050800;28;20044;-68
2021/08/31 03:50:55;;;;;;;15.07;6.85;;;;;;;-146.90;100.00;60518.97;5051748;28;20032;-70
2021/08/31 03:53:20;;;;;;;18.40;6.95;;;;;;;-146.90;100.00;60518.97;5051776;28;20025;-68
2021/08/31 03:55:46;;;;;;;18.83;7.60;;;;;;;-146.90;100.00;60518.97;5051875;28;20025;-69
2021/08/31 03:58:11;;;;;;;17.73;7.30;;;;;;;-146.90;100.00;60518.97;5051831;28;20033;-69
2021/08/31 04:00:36;;;;;;;12.93;6.90;;;;;;;-146.90;100.00;60518.97;5052376;28;20025;-70
2021/08/31 04:03:02;;;;;;;19.15;7.47;;;;;;;-146.90;100.00;60518.97;5051367;28;20021;-70
2021/08/31 04:05:28;;;;;;;15.57;6.93;;;;;;;-146.90;100.00;60518.97;5051789;28;20025;-69
2021/08/31 04:07:53;;;;;;;20.27;8.30;;;;;;;-146.90;100.00;60518.97;5051824;28;20360;-69
2021/08/31 04:10:18;;;;;;;17.38;7.55;;;;;;;-146.90;100.00;60518.97;5051867;28;20024;-69
2021/08/31 04:12:44;;;;;;;19.08;7.20;;;;;;;-146.90;100.00;60518.97;5048807;28;20021;-69
2021/08/31 04:15:10;;;;;;;20.05;7.40;;;;;;;-146.90;100.00;60518.97;5051764;28;20112;-70
2021/08/31 04:17:35;;;;;;;16.58;6.75;;;;;;;-146.90;100.00;60518.97;5051715;28;20120;-69
2021/08/31 04:20:00;;;;;;;13.80;6.53;;;;;;;-146.90;100.00;60518.97;5051548;28;20043;-69
2021/08/31 04:22:26;;;;;;;17.90;6.47;;;;;;;-146.90;100.00;60518.97;5051355;28;20024;-69
2021/08/31 04:24:51;;;;;;;16.70;7.57;;;;;;;-146.90;100.00;60518.97;5050243;28;20071;-70
2021/08/31 04:27:17;;;;;;;17.63;7.15;;;;;;;-146.90;100.00;60518.97;5051114;28;20020;-70
2021/08/31 04:29:42;;;;;;;15.63;8.10;;;;;;;-146.90;100.00;60518.97;5051349;28;20514;-68
2021/08/31 04:32:08;;;;;;;17.35;7.28;;;;;;;-146.90;100.00;60518.97;5051063;28;20115;-68
2021/08/31 04:34:33;;;;;;;18.45;7.20;;;;;;;-146.90;100.00;60518.97;5050782;28;20104;-71
2021/08/31 04:36:58;;;;;;;18.50;7.25;;;;;;;-146.90;100.00;60518.97;5051163;28;20017;-69
2021/08/31 04:39:24;;;;;;;24.63;8.60;;;;;;;-146.90;100.00;60518.97;5051094;28;20024;-70
2021/08/31 04:41:50;;;;;;;17.15;7.80;;;;;;;-146.90;100.00;60518.97;5049838;28;20025;-70
2021/08/31 04:44:15;;;;;;;16.45;7.32;;;;;;;-146.90;100.00;60518.97;5050673;28;20029;-70
2021/08/31 04:46:41;;;;;;;20.88;8.57;;;;;;;-146.90;100.00;60518.97;5050758;28;20308;-68
2021/08/31 04:49:06;;;;;;;21.73;8.35;;;;;;;-146.90;100.00;60518.97;5050726;28;20017;-69
2021/08/31 04:51:31;;;;;;;18.90;7.80;;;;;;;-146.90;100.00;60518.97;5049244;28;20023;-69
2021/08/31 04:53:57;;;;;;;16.35;7.57;;;;;;;-146.90;100.00;60518.97;5050309;28;20482;-69
2021/08/31 04:56:22;;;;;;;22.15;8.85;;;;;;;-146.90;100.00;60518.97;5050660;28;20021;-70
2021/08/31 04:58:47;;;;;;;21.15;8.15;;;;;;;-146.90;100.00;60518.97;5050834;28;20398;-70
2021/08/31 05:01:12;;;;;;;18.30;8.20;;;;;;;-146.90;100.00;60518.97;5050593;28;20040;-69
2021/08/31 05:03:38;;;;;;;18.70;8.55;;;;;;;-146.90;100.00;60518.97;5050135;28;20025;-70
2021/08/31 05:06:03;;;;;;;20.02;8.60;;;;;;;-146.90;100.00;60518.97;5050606;28;20036;-70
2021/08/31 05:08:29;;;;;;;14.23;7.78;;;;;;;-146.90;100.00;60518.97;5050194;28;20029;-69
2021/08/31 05:10:54;;;;;;;22.60;8.80;;;;;;;-146.90;100.00;60518.97;5050494;28;20556;-70
2021/08/31 05:13:19;;;;;;;19.08;9.30;;;;;;;-146.90;100.00;60518.97;5050026;28;20036;-70
2021/08/31 05:15:45;;;;;;;20.05;8.90;;;;;;;-146.90;100.00;60518.97;5050542;28;20485;-69
2021/08/31 05:18:10;;;;;;;19.55;8.80;;;;;;;-146.90;100.00;60518.97;5048629;28;20054;-70
2021/08/31 05:20:35;;;;;;;18.55;8.90;;;;;;;-146.90;100.00;60518.97;5050938;28;20044;-69
2021/08/31 05:23:01;;;;;;;16.60;8.90;;;;;;;-146.90;100.00;60518.97;5049601;28;20122;-69
2021/08/31 05:25:27;;;;;;;16.73;8.63;;;;;;;-146.90;100.00;60518.97;5049202;28;20021;-68
2021/08/31 05:27:53;;;;;;;20.17;8.73;;;;;;;-146.90;100.00;60518.97;5031895;28;20033;-69
2021/08/31 05:30:18;;;;;;;15.25;8.07;;;;;;;-146.90;100.00;60518.97;5050161;28;20029;-70
2021/08/31 05:32:44;;;;;;;15.15;8.00;;;;;;;-146.90;100.00;60518.97;5049822;28;20032;-69
2021/08/31 05:35:10;;;;;;;18.33;9.15;;;;;;;-146.90;100.00;60518.97;5049768;28;20025;-70
2021/08/31 05:37:35;;;;;;;19.83;8.30;;;;;;;-146.90;100.00;60518.97;5049962;28;20470;-71
2021/08/31 05:40:01;;;;;;;13.70;7.53;;;;;;;-146.90;100.00;60518.97;5049913;28;20075;-72
2021/08/31 05:42:26;;;;;;;18.38;8.45;;;;;;;-146.90;100.00;60518.97;5050301;28;20024;-70
2021/08/31 05:44:51;;;;;;;17.25;7.72;;;;;;;-146.90;100.00;60518.97;5049417;28;20028;-71
2021/08/31 05:47:16;;;;;;;13.32;6.90;;;;;;;-146.90;100.00;60518.97;5049805;28;20029;-69
2021/08/31 05:49:42;;;;;;;14.70;7.43;;;;;;;-146.90;100.00;60518.97;5049822;28;20021;-70
2021/08/31 05:52:07;;;;;;;18.63;7.20;;;;;;;-146.90;100.00;60518.97;5050631;28;20450;-69
2021/08/31 05:54:33;;;;;;;18.80;7.45;;;;;;;-146.90;100.00;60518.97;5049292;28;20083;-69
2021/08/31 05:57:00;;;;;;;22.52;8.02;;;;;;;-146.90;100.00;60518.97;5048562;28;20031;-70
2021/08/31 05:59:26;;;;;;;19.63;6.28;;;;;;;-146.90;100.00;60518.97;5049193;28;20034;-69
2021/08/31 06:01:51;;;;;;;16.85;7.35;;;;;;;-146.90;100.00;60518.97;5050005;28;20029;-70
2021/08/31 06:04:16;;;;;;;17.92;6.47;;;;;;;-146.90;100.00;60518.97;5049617;28;20020;-69
2021/08/31 06:06:42;;;;;;;17.15;6.43;;;;;;;-146.90;100.00;60518.97;5049680;28;20101;-69
2021/08/31 06:09:08;;;;;;;16.10;5.97;;;;;;;-146.90;100.00;60518.97;5048137;28;20025;-70
2021/08/31 06:11:37;;;;;;;20.05;6.50;;;;;;;-146.90;100.00;60518.97;5048389;28;20359;-69
2021/08/31 06:14:02;;;;;;;16.75;5.43;;;;;;;-146.90;100.00;60518.97;5048832;28;20482;-70
2021/08/31 06:16:28;;;;;;;11.77;5.78;;;;;;;-146.90;100.00;60518.97;5048804;28;20033;-70
2021/08/31 06:18:53;;;;;;;14.68;6.13;;;;;;;-146.90;100.00;60518.97;5049145;28;20355;-70
2021/08/31 06:21:18;;;;;;;16.23;5.93;;;;;;;-146.90;100.00;60518.97;5049185;28;20123;-69
2021/08/31 06:23:44;;;;;;;17.00;6.38;;;;;;;-146.90;100.00;60518.97;5048174;28;20084;-69
2021/08/31 06:26:09;;;;;;;19.75;6.18;;;;;;;-146.90;100.00;60518.97;5048737;28;20025;-69
2021/08/31 06:28:34;;;;;;;11.90;4.93;;;;;;;-146.90;100.00;60518.97;5035031;28;20450;-70
2021/08/31 06:31:00;;;;;;;11.23;4.93;;;;;;;-146.90;100.00;60518.97;5028288;28;20541;-70
2021/08/31 06:33:25;;;;;;;15.32;5.53;;;;;;;-146.90;100.00;60518.97;5028642;28;20490;-69
2021/08/31 06:35:50;;;;;;;16.27;6.20;;;;;;;-146.90;100.00;60518.97;5030941;28;20116;-70
2021/08/31 06:38:16;;;;;;;13.77;5.32;;;;;;;-146.90;100.00;60518.97;5032918;28;20032;-69
2021/08/31 06:40:41;;;;;;;17.95;5.57;;;;;;;-146.90;100.00;60518.97;5033731;28;20224;-70
2021/08/31 06:43:06;;;;;;;14.77;5.18;;;;;;;-146.90;100.00;60518.97;5032995;28;20032;-70
2021/08/31 06:45:32;;;;;;;16.52;5.60;;;;;;;-146.90;100.00;60518.97;5032590;28;20036;-69
2021/08/31 06:47:57;;;;;;;13.93;5.32;;;;;;;-146.90;100.00;60518.97;5033015;28;20108;-69
2021/08/31 06:50:22;;;;;;;19.05;5.78;;;;;;;-146.90;100.00;60518.97;5032934;28;20025;-69
2021/08/31 06:52:48;;;;;;;18.50;5.55;;;;;;;-146.90;100.00;60518.97;5032573;28;20032;-69
2021/08/31 06:55:14;;;;;;;15.07;5.60;;;;;;;-146.90;100.00;60518.97;5031272;28;20022;-70
2021/08/31 06:57:39;;;;;;;14.95;4.95;;;;;;;-146.90;100.00;60518.97;5031395;28;20025;-70
2021/08/31 07:00:06;;;;;;;19.38;5.28;;;;;;;-146.90;100.00;60518.97;5032235;28;20068;-69
2021/08/31 07:02:32;;;;;;;16.65;5.25;;;;;;;-146.90;100.00;60518.97;5031297;28;20132;-69
2021/08/31 07:04:57;;;;;;;17.00;5.03;;;;;;;-146.90;100.00;60518.97;5032640;28;20049;-69
2021/08/31 07:07:23;;;;;;;15.80;5.07;;;;;;;-146.90;100.00;60518.97;5032669;28;20383;-69
2021/08/31 07:09:48;;;;;;;22.35;4.63;;;;;;;-146.90;100.00;60518.97;5032557;28;20112;-69
2021/08/31 07:12:14;;;;;;;15.80;5.10;;;;;;;-146.90;100.00;60518.97;5032535;28;20053;-69
2021/08/31 07:14:39;;;;;;;21.30;5.20;;;;;;;-146.90;100.00;60518.97;5032186;28;20021;-70
2021/08/31 07:17:05;;;;;;;15.23;4.80;;;;;;;-146.90;100.00;60518.97;5032406;28;20494;-70
2021/08/31 07:19:30;;;;;;;16.00;4.93;;;;;;;-146.90;100.00;60518.97;5032094;28;20040;-70
2021/08/31 07:21:56;;;;;;;19.20;5.65;;;;;;;-146.90;100.00;60518.97;5032312;28;20061;-70
2021/08/31 07:24:21;;;;;;;17.33;4.60;;;;;;;-146.90;100.00;60518.97;5032537;28;20052;-69
2021/08/31 07:26:47;;;;;;;18.27;5.60;;;;;;;-146.90;100.00;60518.97;5031293;28;20470;-70
2021/08/31 07:29:12;;;;;;;17.38;5.47;;;;;;;-146.90;100.00;60518.97;5032099;28;20430;-70
2021/08/31 07:31:37;;;;;;;17.85;5.13;;;;;;;-146.90;100.00;60518.97;5033168;28;20029;-70
2021/08/31 07:34:03;;;;;;;16.48;5.03;;;;;;;-146.90;100.00;60518.97;5032659;28;20025;-69
2021/08/31 07:36:28;;;;;;;17.77;4.70;;;;;;;-146.90;100.00;60518.97;5033048;28;20029;-69
2021/08/31 07:38:55;;;;;;;18.13;4.82;;;;;;;-146.90;100.00;60518.97;5032448;28;20049;-69
2021/08/31 07:41:21;;;;;;;16.60;4.60;;;;;;;-146.90;100.00;60518.97;5032979;28;20480;-69
2021/08/31 07:43:46;;;;;;;14.50;4.55;;;;;;;-146.90;100.00;60518.97;5031839;28;20160;-69
2021/08/31 07:46:12;;;;;;;18.05;5.32;;;;;;;-146.90;100.00;60518.97;5030150;28;20030;-69
2021/08/31 07:48:38;;;;;;;23.08;5.45;;;;;;;-146.90;100.00;60518.97;5032103;28;20031;-70
2021/08/31 07:51:03;;;;;;;18.17;4.90;;;;;;;-146.90;100.00;60518.97;5030866;28;20021;-70
2021/08/31 07:53:28;;;;;;;19.15;4.93;;;;;;;-146.90;100.00;60518.97;5029903;28;20470;-70
2021/08/31 07:55:54;;;;;;;19.05;4.78;;;;;;;-146.90;100.00;60518.97;5030118;28;20029;-69
2021/08/31 07:58:19;;;;;;;18.02;5.40;;;;;;;-146.90;100.00;60518.97;5031199;28;20022;-69
2021/08/31 08:00:44;;;;;;;21.58;5.80;;;;;;;-146.90;100.00;60518.97;5031897;28;20032;-69
2021/08/31 08:03:10;;;;;;;13.23;4.53;;;;;;;-146.90;100.00;60518.97;5031393;28;20052;-69
2021/08/31 08:05:35;;;;;;;20.83;5.15;;;;;;;-146.90;100.00;60518.97;5031639;28;20021;-69
2021/08/31 08:08:00;;;;;;;17.40;4.80;;;;;;;-146.90;100.00;60518.97;5013493;28;20168;-70
2021/08/31 08:10:25;;;;;;;15.52;5.40;;;;;;;-146.90;100.00;60518.97;5030474;28;20033;-70
2021/08/31 08:12:51;;;;;;;19.33;5.18;;;;;;;-146.90;100.00;60518.97;5031579;28;20021;-70
2021/08/31 08:15:16;;;;;;;18.65;5.38;;;;;;;-146.90;100.00;60518.97;5031203;28;20030;-69
2021/08/31 08:17:42;;;;;;;17.95;4.85;;;;;;;-146.90;100.00;60518.97;5031616;28;20382;-70
2021/08/31 08:20:08;;;;;;;15.85;4.95;;;;;;;-146.90;100.00;60518.97;5031120;28;20467;-70
2021/08/31 08:22:34;;;;;;;21.73;5.07;;;;;;;-146.90;100.00;60518.97;5031795;28;20026;-70
2021/08/31 08:24:59;;;;;;;22.75;5.07;;;;;;;-146.90;100.00;60518.97;5029524;28;20471;-70
2021/08/31 08:27:25;;;;;;;15.13;5.32;;;;;;;-146.90;100.00;60518.97;5031326;28;20021;-70
2021/08/31 08:29:50;;;;;;;15.35;4.70;;;;;;;-146.90;100.00;60518.97;5030809;28;20053;-70
2021/08/31 08:32:15;;;;;;;16.73;5.28;;;;;;;-146.90;100.00;60518.97;5030239;28;20017;-70
2021/08/31 08:34:41;;;;;;;16.42;5.40;;;;;;;-146.90;100.00;60518.97;5030583;28;20037;-70
2021/08/31 08:37:07;;;;;;;18.27;5.38;;;;;;;-146.90;100.00;60518.97;5031841;28;20476;-69
2021/08/31 08:39:34;;;;;;;18.25;5.38;;;;;;;-146.90;100.00;60518.97;5031047;28;20497;-70
2021/08/31 08:42:00;;;;;;;22.45;5.95;;;;;;;-146.90;100.00;60518.97;5030937;28;20101;-70
2021/08/31 08:44:28;;;;;;;15.95;5.22;;;;;;;-146.90;100.00;60518.97;5029006;28;20382;-69
2021/08/31 08:46:54;;;;;;;21.38;5.72;;;;;;;-146.90;100.00;60518.97;5030893;28;20402;-70
2021/08/31 08:49:20;;;;;;;16.08;4.80;;;;;;;-146.90;100.00;60518.97;5029133;28;20479;-70
2021/08/31 08:51:45;;;;;;;20.60;5.75;;;;;;;-146.90;100.00;60518.97;5029743;28;20032;-69
2021/08/31 08:54:11;;;;;;;23.05;5.35;;;;;;;-146.90;100.00;60518.97;5030588;28;20037;-69
2021/08/31 08:56:36;;;;;;;15.85;5.38;;;;;;;-146.90;100.00;60518.97;5029245;28;20053;-69
2021/08/31 08:59:02;;;;;;;23.13;5.97;;;;;;;-146.90;100.00;60518.97;5029914;28;20104;-70
2021/08/31 09:01:44;;;;;;;21.67;5.45;;;;;;;-146.90;100.00;60518.97;5028816;28;20094;-69
2021/08/31 09:04:10;;;;;;;20.00;5.70;;;;;;;-146.90;100.00;60518.97;5029294;28;20419;-69
2021/08/31 09:06:35;;;;;;;18.17;5.78;;;;;;;-146.90;100.00;60518.97;5029168;28;20124;-70
2021/08/31 09:09:04;;;;;;;15.30;5.72;;;;;;;-146.90;100.00;60518.97;5029441;28;20457;-71
2021/08/31 09:11:31;;;;;;;16.25;5.63;;;;;;;-146.90;100.00;60518.97;5029983;28;20017;-71
2021/08/31 09:14:15;;;;;;;19.17;6.03;;;;;;;-146.90;100.00;60518.97;5030322;28;20032;-70
2021/08/31 09:16:41;;;;;;;15.73;5.07;;;;;;;-146.90;100.00;60518.97;5030811;28;20104;-70
2021/08/31 09:19:07;;;;;;;14.13;5.45;;;;;;;-146.90;100.00;60518.97;5031413;28;20021;-71
2021/08/31 09:21:32;;;;;;;16.30;5.05;;;;;;;-146.90;100.00;60518.97;5030444;28;20451;-70
2021/08/31 09:24:00;;;;;;;12.90;5.40;;;;;;;-146.90;100.00;60518.97;5030371;28;20118;-70
2021/08/31 09:26:39;;;;;;;13.90;5.47;;;;;;;-146.90;100.00;60518.97;5030661;28;20025;-70
2021/08/31 09:29:12;;;;;;;15.80;4.82;;;;;;;-146.90;100.00;60518.97;5029446;28;20044;-70
2021/08/31 09:31:56;;;;;;;14.70;4.95;;;;;;;-146.90;100.00;60518.97;5031847;28;20020;-70
2021/08/31 09:34:43;;;;;;;13.15;4.90;;;;;;;-146.90;100.00;60518.97;5034755;28;20040;-70
2021/08/31 09:37:48;;;;;;;16.92;5.47;;;;;;;-146.90;100.00;60518.97;5034129;28;20049;-71
2021/08/31 09:40:17;;;;;;;18.45;5.90;;;;;;;-146.90;100.00;60518.97;5012751;28;20033;-70
2021/08/31 09:43:04;;;;;;;21.90;6.13;;;;;;;-146.90;100.00;60518.97;5030076;28;20396;-69
2021/08/31 09:45:38;;;;;;;16.48;5.75;;;;;;;-146.90;100.00;60518.97;5033885;28;20075;-71
2021/08/31 09:48:06;;;;;;;18.08;5.82;;;;;;;-146.90;100.00;60518.97;5037891;28;20037;-70
2021/08/31 09:50:39;;;;;;;14.77;5.50;;;;;;;-146.90;100.00;60518.97;5032780;28;20488;-69
2021/08/31 09:53:07;;;;;;;20.65;6.30;;;;;;;-146.90;100.00;60518.97;5030266;28;20025;-69
2021/08/31 09:55:33;;;;;;;16.63;5.75;;;;;;;-146.90;100.00;60518.97;5029758;28;20069;-70
2021/08/31 09:58:16;;;;;;;15.88;5.63;;;;;;;-146.90;100.00;60518.97;5029567;28;20128;-69
2021/08/31 10:00:43;;;;;;;19.77;6.40;;;;;;;-146.90;100.00;60518.97;5030398;28;20018;-69
2021/08/31 10:03:09;;;;;;;22.88;6.03;;;;;;;-146.90;100.00;60518.97;5029572;28;20048;-69
2021/08/31 10:05:35;;;;;;;23.33;6.75;;;;;;;-146.90;100.00;60518.97;5029502;28;20030;-70
2021/08/31 10:08:02;;;;;;;20.48;5.53;;;;;;;-146.90;100.00;60518.97;5027917;28;20287;-70
2021/08/31 10:10:29;;;;;;;22.75;6.15;;;;;;;-146.90;100.00;60518.97;5029852;28;20037;-70
2021/08/31 10:12:56;;;;;;;19.90;6.00;;;;;;;-146.90;100.00;60518.97;5028905;28;20028;-70
2021/08/31 10:15:22;;;;;;;18.30;6.47;;;;;;;-146.90;100.00;60518.97;5029307;28;20025;-70
2021/08/31 10:17:51;;;;;;;17.35;6.03;;;;;;;-146.90;100.00;60518.97;5028594;28;20041;-69
2021/08/31 10:20:19;;;;;;;16.10;5.97;;;;;;;-146.90;100.00;60518.97;5029229;28;20033;-69
2021/08/31 10:22:46;;;;;;;16.73;5.80;;;;;;;-146.90;100.00;60518.97;5027801;28;20025;-69
2021/08/31 10:25:12;;;;;;;14.20;6.07;;;;;;;-146.90;100.00;60518.97;5012190;28;20017;-69
2021/08/31 10:27:39;;;;;;;20.23;6.70;;;;;;;-146.90;100.00;60518.97;5029756;28;20037;-70
2021/08/31 10:30:23;;;;;;;20.70;5.57;;;;;;;-146.90;100.00;60518.97;5028616;28;20057;-70
2021/08/31 10:32:50;;;;;;;20.55;5.72;;;;;;;-146.90;100.00;60518.97;5028928;28;20030;-71
2021/08/31 10:37:57;;;;;;;19.85;5.93;;;;;;;-146.90;100.00;60518.97;5029366;28;20100;-71
2021/08/31 10:40:40;;;;;;;18.08;6.10;;;;;;;-146.90;100.00;60518.97;5028211;28;20021;-70
2021/08/31 10:43:08;;;;;;;21.05;5.35;;;;;;;-146.90;100.00;60518.97;5027250;28;20029;-71
2021/08/31 10:45:38;;;;;;;16.77;6.13;;;;;;;-146.90;100.00;60518.97;5029042;28;20029;-71
2021/08/31 10:48:22;;;;;;;14.25;5.50;;;;;;;-146.90;100.00;60518.97;5027408;28;20071;-71
2021/08/31 10:50:51;;;;;;;;;;;;;;;-146.90;100.00;60518.97;5028286;28;20112;-71
2021/08/31 10:53:39;;;;;;;15.90;5.50;;;;;;;-146.90;100.00;60518.97;5026943;28;19940;-71
2021/08/31 10:56:22;;;;;;;19.23;5.47;;;;;;;-146.90;100.00;60518.97;5029011;28;20036;-70
2021/08/31 10:58:48;;;;;;;17.95;5.20;;;;;;;-146.90;100.00;60518.97;5027342;28;20030;-70
2021/08/31 11:01:16;;;;;;;27.45;6.68;;;;;;;-146.90;100.00;60518.97;5028998;28;20032;-71